Terminal Aerodrome Forecast
Issued by NWS

Home | Current Version | Previous Version | Text Only | Print | Product List | Glossary On
Versions: 1 2 3 4 5 6 7 8 9 10 11 12 13 14 15 16 17 18
407
FTUS46 KMTR 210549 AAA
TAFSNS
TAF AMD
KSNS 210549Z 2106/2206 29007KT P6SM VCSH BKN040 BKN050 BKN070
      TEMPO 2106/2110 3SM RA BKN025 OVC045
     FM211500 15006KT P6SM VCSH SCT025 BKN050 OVC100
     FM212100 19010KT P6SM VCSH SCT050 BKN100=

USA.gov is the U.S. government's official web portal to all federal, state and local government web resources and services.